sensor_id;sensor_type;location;lat;lon;timestamp;P1;durP1;ratioP1;P2;durP2;ratioP2
3155;SDS011;1588;50.892;7.082;2022-09-16T00:00:00;12.20;;;1.67;;
3155;SDS011;1588;50.892;7.082;2022-09-16T00:05:04;7.60;;;1.17;;
3155;SDS011;1588;50.892;7.082;2022-09-16T00:10:07;2.23;;;1.40;;
3155;SDS011;1588;50.892;7.082;2022-09-16T00:15:10;6.77;;;1.50;;
3155;SDS011;1588;50.892;7.082;2022-09-16T00:20:14;5.43;;;1.47;;
3155;SDS011;1588;50.892;7.082;2022-09-16T00:25:16;5.90;;;1.30;;
3155;SDS011;1588;50.892;7.082;2022-09-16T00:30:27;3.20;;;1.40;;
3155;SDS011;1588;50.892;7.082;2022-09-16T00:35:31;3.70;;;1.80;;
3155;SDS011;1588;50.892;7.082;2022-09-16T00:40:33;10.47;;;1.43;;
3155;SDS011;1588;50.892;7.082;2022-09-16T00:45:36;5.80;;;1.73;;
3155;SDS011;1588;50.892;7.082;2022-09-16T00:50:40;5.80;;;1.30;;
3155;SDS011;1588;50.892;7.082;2022-09-16T00:55:47;3.10;;;1.13;;
3155;SDS011;1588;50.892;7.082;2022-09-16T01:00:51;12.13;;;1.50;;
3155;SDS011;1588;50.892;7.082;2022-09-16T01:05:55;10.10;;;1.43;;
3155;SDS011;1588;50.892;7.082;2022-09-16T01:10:58;3.00;;;1.10;;
3155;SDS011;1588;50.892;7.082;2022-09-16T01:16:08;4.30;;;1.30;;
3155;SDS011;1588;50.892;7.082;2022-09-16T01:21:22;2.03;;;1.20;;
3155;SDS011;1588;50.892;7.082;2022-09-16T01:26:49;6.30;;;1.30;;
3155;SDS011;1588;50.892;7.082;2022-09-16T01:32:13;8.17;;;1.60;;
3155;SDS011;1588;50.892;7.082;2022-09-16T01:37:22;4.23;;;1.30;;
3155;SDS011;1588;50.892;7.082;2022-09-16T01:42:36;4.50;;;1.53;;
3155;SDS011;1588;50.892;7.082;2022-09-16T01:53:29;5.93;;;1.80;;
3155;SDS011;1588;50.892;7.082;2022-09-16T01:58:35;7.70;;;1.27;;
3155;SDS011;1588;50.892;7.082;2022-09-16T02:03:46;4.63;;;1.57;;
3155;SDS011;1588;50.892;7.082;2022-09-16T02:08:53;4.00;;;1.27;;
3155;SDS011;1588;50.892;7.082;2022-09-16T02:14:00;9.27;;;2.07;;
3155;SDS011;1588;50.892;7.082;2022-09-16T02:19:08;14.53;;;1.97;;
3155;SDS011;1588;50.892;7.082;2022-09-16T02:24:17;2.27;;;1.40;;
3155;SDS011;1588;50.892;7.082;2022-09-16T02:29:22;3.27;;;1.50;;
3155;SDS011;1588;50.892;7.082;2022-09-16T02:34:29;6.50;;;1.90;;
3155;SDS011;1588;50.892;7.082;2022-09-16T02:39:36;13.60;;;2.20;;
3155;SDS011;1588;50.892;7.082;2022-09-16T02:44:42;13.97;;;1.90;;
3155;SDS011;1588;50.892;7.082;2022-09-16T02:49:50;13.20;;;1.80;;
3155;SDS011;1588;50.892;7.082;2022-09-16T02:55:00;12.37;;;2.03;;
3155;SDS011;1588;50.892;7.082;2022-09-16T03:00:08;6.13;;;1.93;;
3155;SDS011;1588;50.892;7.082;2022-09-16T03:05:12;6.87;;;2.17;;
3155;SDS011;1588;50.892;7.082;2022-09-16T03:10:17;5.93;;;2.50;;
3155;SDS011;1588;50.892;7.082;2022-09-16T03:15:30;6.13;;;1.70;;
3155;SDS011;1588;50.892;7.082;2022-09-16T03:20:43;9.20;;;2.03;;
3155;SDS011;1588;50.892;7.082;2022-09-16T03:25:54;7.23;;;2.10;;
3155;SDS011;1588;50.892;7.082;2022-09-16T03:31:01;4.70;;;2.10;;
3155;SDS011;1588;50.892;7.082;2022-09-16T03:36:12;5.90;;;1.93;;
3155;SDS011;1588;50.892;7.082;2022-09-16T03:41:17;5.93;;;1.80;;
3155;SDS011;1588;50.892;7.082;2022-09-16T03:46:19;17.70;;;2.63;;
3155;SDS011;1588;50.892;7.082;2022-09-16T03:51:23;8.07;;;1.73;;
3155;SDS011;1588;50.892;7.082;2022-09-16T03:56:26;17.53;;;2.20;;
3155;SDS011;1588;50.892;7.082;2022-09-16T04:01:28;3.70;;;2.00;;
3155;SDS011;1588;50.892;7.082;2022-09-16T04:06:32;7.13;;;2.10;;
3155;SDS011;1588;50.892;7.082;2022-09-16T04:11:34;4.23;;;2.43;;
3155;SDS011;1588;50.892;7.082;2022-09-16T04:16:37;9.77;;;2.33;;
3155;SDS011;1588;50.892;7.082;2022-09-16T04:21:41;4.50;;;2.30;;
3155;SDS011;1588;50.892;7.082;2022-09-16T04:26:43;7.83;;;2.03;;
3155;SDS011;1588;50.892;7.082;2022-09-16T04:31:46;12.57;;;2.40;;
3155;SDS011;1588;50.892;7.082;2022-09-16T04:36:49;8.07;;;2.17;;
3155;SDS011;1588;50.892;7.082;2022-09-16T04:41:52;4.33;;;2.10;;
3155;SDS011;1588;50.892;7.082;2022-09-16T04:46:54;15.13;;;2.70;;
3155;SDS011;1588;50.892;7.082;2022-09-16T04:51:58;15.03;;;2.63;;
3155;SDS011;1588;50.892;7.082;2022-09-16T04:57:00;10.50;;;2.10;;
3155;SDS011;1588;50.892;7.082;2022-09-16T05:02:02;9.70;;;2.27;;
3155;SDS011;1588;50.892;7.082;2022-09-16T05:07:06;13.07;;;2.60;;
3155;SDS011;1588;50.892;7.082;2022-09-16T05:12:09;6.13;;;1.87;;
3155;SDS011;1588;50.892;7.082;2022-09-16T05:17:11;11.63;;;2.20;;
3155;SDS011;1588;50.892;7.082;2022-09-16T05:22:18;7.93;;;2.43;;
3155;SDS011;1588;50.892;7.082;2022-09-16T05:27:21;6.70;;;1.90;;
3155;SDS011;1588;50.892;7.082;2022-09-16T05:32:27;16.40;;;2.70;;
3155;SDS011;1588;50.892;7.082;2022-09-16T05:37:31;5.20;;;2.27;;
3155;SDS011;1588;50.892;7.082;2022-09-16T05:42:34;12.03;;;2.60;;
3155;SDS011;1588;50.892;7.082;2022-09-16T05:47:36;10.10;;;2.20;;
3155;SDS011;1588;50.892;7.082;2022-09-16T05:52:41;3.40;;;1.90;;
3155;SDS011;1588;50.892;7.082;2022-09-16T05:57:43;6.10;;;2.07;;
3155;SDS011;1588;50.892;7.082;2022-09-16T06:02:46;5.27;;;1.90;;
3155;SDS011;1588;50.892;7.082;2022-09-16T06:07:49;13.50;;;1.60;;
3155;SDS011;1588;50.892;7.082;2022-09-16T06:12:56;8.73;;;2.33;;
3155;SDS011;1588;50.892;7.082;2022-09-16T06:17:59;6.07;;;1.70;;
3155;SDS011;1588;50.892;7.082;2022-09-16T06:23:03;2.20;;;1.80;;
3155;SDS011;1588;50.892;7.082;2022-09-16T06:28:05;3.87;;;1.50;;
3155;SDS011;1588;50.892;7.082;2022-09-16T06:33:09;8.97;;;1.90;;
3155;SDS011;1588;50.892;7.082;2022-09-16T06:38:13;5.03;;;1.67;;
3155;SDS011;1588;50.892;7.082;2022-09-16T06:43:16;5.57;;;1.40;;
3155;SDS011;1588;50.892;7.082;2022-09-16T06:48:18;6.60;;;1.73;;
3155;SDS011;1588;50.892;7.082;2022-09-16T06:53:22;5.57;;;2.00;;
3155;SDS011;1588;50.892;7.082;2022-09-16T06:58:25;5.40;;;1.83;;
3155;SDS011;1588;50.892;7.082;2022-09-16T07:03:29;8.63;;;1.80;;
3155;SDS011;1588;50.892;7.082;2022-09-16T07:08:33;9.70;;;1.80;;
3155;SDS011;1588;50.892;7.082;2022-09-16T07:13:37;4.77;;;1.60;;
3155;SDS011;1588;50.892;7.082;2022-09-16T07:18:39;15.80;;;2.30;;
3155;SDS011;1588;50.892;7.082;2022-09-16T07:23:44;5.57;;;1.47;;
3155;SDS011;1588;50.892;7.082;2022-09-16T07:28:48;9.33;;;1.57;;
3155;SDS011;1588;50.892;7.082;2022-09-16T07:33:52;8.67;;;1.67;;
3155;SDS011;1588;50.892;7.082;2022-09-16T07:38:57;3.77;;;1.50;;
3155;SDS011;1588;50.892;7.082;2022-09-16T07:43:59;8.43;;;2.00;;
3155;SDS011;1588;50.892;7.082;2022-09-16T07:49:03;3.37;;;1.50;;
3155;SDS011;1588;50.892;7.082;2022-09-16T07:54:14;1.50;;;1.20;;
3155;SDS011;1588;50.892;7.082;2022-09-16T07:59:18;3.93;;;1.40;;
3155;SDS011;1588;50.892;7.082;2022-09-16T08:04:21;3.97;;;1.90;;
3155;SDS011;1588;50.892;7.082;2022-09-16T08:09:24;1.40;;;1.00;;
3155;SDS011;1588;50.892;7.082;2022-09-16T08:14:27;4.70;;;1.43;;
3155;SDS011;1588;50.892;7.082;2022-09-16T08:19:29;2.27;;;1.10;;
3155;SDS011;1588;50.892;7.082;2022-09-16T08:24:33;6.90;;;1.80;;
3155;SDS011;1588;50.892;7.082;2022-09-16T08:29:35;3.27;;;1.30;;
3155;SDS011;1588;50.892;7.082;2022-09-16T08:34:38;3.53;;;1.20;;
3155;SDS011;1588;50.892;7.082;2022-09-16T08:39:47;10.97;;;1.63;;
3155;SDS011;1588;50.892;7.082;2022-09-16T08:44:52;9.17;;;2.20;;
3155;SDS011;1588;50.892;7.082;2022-09-16T08:50:03;3.43;;;1.67;;
3155;SDS011;1588;50.892;7.082;2022-09-16T08:55:13;6.17;;;1.70;;
3155;SDS011;1588;50.892;7.082;2022-09-16T09:00:18;3.40;;;1.70;;
3155;SDS011;1588;50.892;7.082;2022-09-16T09:05:23;10.07;;;2.57;;
3155;SDS011;1588;50.892;7.082;2022-09-16T09:10:33;13.13;;;1.50;;
3155;SDS011;1588;50.892;7.082;2022-09-16T09:15:47;4.50;;;1.40;;
3155;SDS011;1588;50.892;7.082;2022-09-16T09:20:56;6.20;;;1.00;;
3155;SDS011;1588;50.892;7.082;2022-09-16T09:26:10;3.30;;;1.07;;
3155;SDS011;1588;50.892;7.082;2022-09-16T09:31:28;7.17;;;1.40;;
3155;SDS011;1588;50.892;7.082;2022-09-16T09:36:44;5.00;;;1.10;;
3155;SDS011;1588;50.892;7.082;2022-09-16T09:41:58;1.63;;;1.00;;
3155;SDS011;1588;50.892;7.082;2022-09-16T09:47:18;6.07;;;1.50;;
3155;SDS011;1588;50.892;7.082;2022-09-16T09:52:25;4.17;;;1.20;;
3155;SDS011;1588;50.892;7.082;2022-09-16T09:57:40;3.37;;;1.10;;
3155;SDS011;1588;50.892;7.082;2022-09-16T10:02:59;4.17;;;0.97;;
3155;SDS011;1588;50.892;7.082;2022-09-16T10:08:08;10.77;;;1.00;;
3155;SDS011;1588;50.892;7.082;2022-09-16T10:13:19;4.20;;;1.20;;
3155;SDS011;1588;50.892;7.082;2022-09-16T10:18:24;5.30;;;1.40;;
3155;SDS011;1588;50.892;7.082;2022-09-16T10:23:29;2.63;;;0.83;;
3155;SDS011;1588;50.892;7.082;2022-09-16T10:28:34;3.80;;;1.27;;
3155;SDS011;1588;50.892;7.082;2022-09-16T10:33:41;2.33;;;1.27;;
3155;SDS011;1588;50.892;7.082;2022-09-16T10:38:45;2.20;;;1.30;;
3155;SDS011;1588;50.892;7.082;2022-09-16T10:43:55;4.87;;;1.50;;
3155;SDS011;1588;50.892;7.082;2022-09-16T10:49:08;1.37;;;1.13;;
3155;SDS011;1588;50.892;7.082;2022-09-16T10:54:22;1.60;;;1.17;;
3155;SDS011;1588;50.892;7.082;2022-09-16T10:59:28;0.90;;;0.80;;
3155;SDS011;1588;50.892;7.082;2022-09-16T11:04:36;1.40;;;1.00;;
3155;SDS011;1588;50.892;7.082;2022-09-16T11:09:56;2.40;;;0.80;;
3155;SDS011;1588;50.892;7.082;2022-09-16T11:15:05;2.70;;;0.87;;
3155;SDS011;1588;50.892;7.082;2022-09-16T11:20:32;5.13;;;1.03;;
3155;SDS011;1588;50.892;7.082;2022-09-16T11:25:47;2.20;;;1.10;;
3155;SDS011;1588;50.892;7.082;2022-09-16T11:31:01;2.20;;;0.77;;
3155;SDS011;1588;50.892;7.082;2022-09-16T11:36:15;1.57;;;0.80;;
3155;SDS011;1588;50.892;7.082;2022-09-16T11:41:43;2.50;;;0.80;;
3155;SDS011;1588;50.892;7.082;2022-09-16T11:46:54;7.40;;;1.00;;
3155;SDS011;1588;50.892;7.082;2022-09-16T11:52:12;2.23;;;0.80;;
3155;SDS011;1588;50.892;7.082;2022-09-16T11:57:25;4.93;;;1.13;;
3155;SDS011;1588;50.892;7.082;2022-09-16T12:02:33;1.20;;;0.83;;
3155;SDS011;1588;50.892;7.082;2022-09-16T12:07:38;1.43;;;0.73;;
3155;SDS011;1588;50.892;7.082;2022-09-16T12:12:47;1.83;;;0.77;;
3155;SDS011;1588;50.892;7.082;2022-09-16T12:17:53;1.87;;;0.70;;
3155;SDS011;1588;50.892;7.082;2022-09-16T12:23:09;1.53;;;0.70;;
3155;SDS011;1588;50.892;7.082;2022-09-16T12:28:19;1.00;;;0.70;;
3155;SDS011;1588;50.892;7.082;2022-09-16T12:33:29;3.57;;;0.90;;
3155;SDS011;1588;50.892;7.082;2022-09-16T12:38:38;0.90;;;0.80;;
3155;SDS011;1588;50.892;7.082;2022-09-16T12:43:46;5.60;;;1.30;;
3155;SDS011;1588;50.892;7.082;2022-09-16T12:49:16;3.73;;;0.90;;
3155;SDS011;1588;50.892;7.082;2022-09-16T12:54:42;1.93;;;0.90;;
3155;SDS011;1588;50.892;7.082;2022-09-16T13:00:01;6.60;;;0.73;;
3155;SDS011;1588;50.892;7.082;2022-09-16T13:05:16;1.07;;;0.70;;
3155;SDS011;1588;50.892;7.082;2022-09-16T13:10:28;1.83;;;0.80;;
3155;SDS011;1588;50.892;7.082;2022-09-16T13:15:33;1.50;;;1.07;;
3155;SDS011;1588;50.892;7.082;2022-09-16T13:20:40;4.53;;;1.17;;
3155;SDS011;1588;50.892;7.082;2022-09-16T13:25:49;1.57;;;0.93;;
3155;SDS011;1588;50.892;7.082;2022-09-16T13:31:07;2.90;;;0.90;;
3155;SDS011;1588;50.892;7.082;2022-09-16T13:36:31;8.93;;;1.50;;
3155;SDS011;1588;50.892;7.082;2022-09-16T13:41:35;3.33;;;1.10;;
3155;SDS011;1588;50.892;7.082;2022-09-16T13:46:38;3.20;;;1.20;;
3155;SDS011;1588;50.892;7.082;2022-09-16T13:51:43;1.73;;;0.90;;
3155;SDS011;1588;50.892;7.082;2022-09-16T13:56:49;3.03;;;0.90;;
3155;SDS011;1588;50.892;7.082;2022-09-16T14:02:06;3.67;;;1.00;;
3155;SDS011;1588;50.892;7.082;2022-09-16T14:07:20;1.97;;;0.93;;
3155;SDS011;1588;50.892;7.082;2022-09-16T14:12:40;1.00;;;0.70;;
3155;SDS011;1588;50.892;7.082;2022-09-16T14:17:50;2.67;;;0.93;;
3155;SDS011;1588;50.892;7.082;2022-09-16T14:23:03;0.70;;;0.60;;
3155;SDS011;1588;50.892;7.082;2022-09-16T14:28:17;1.50;;;1.10;;
3155;SDS011;1588;50.892;7.082;2022-09-16T14:33:23;8.50;;;1.00;;
3155;SDS011;1588;50.892;7.082;2022-09-16T14:38:32;2.50;;;0.83;;
3155;SDS011;1588;50.892;7.082;2022-09-16T14:43:36;1.00;;;0.70;;
3155;SDS011;1588;50.892;7.082;2022-09-16T14:48:39;1.97;;;0.80;;
3155;SDS011;1588;50.892;7.082;2022-09-16T14:53:51;3.57;;;0.93;;
3155;SDS011;1588;50.892;7.082;2022-09-16T14:58:55;5.87;;;1.10;;
3155;SDS011;1588;50.892;7.082;2022-09-16T15:03:59;2.43;;;0.90;;
3155;SDS011;1588;50.892;7.082;2022-09-16T15:09:12;7.73;;;0.90;;
3155;SDS011;1588;50.892;7.082;2022-09-16T15:14:18;2.70;;;1.00;;
3155;SDS011;1588;50.892;7.082;2022-09-16T15:19:21;9.50;;;1.10;;
3155;SDS011;1588;50.892;7.082;2022-09-16T15:24:29;4.20;;;0.80;;
3155;SDS011;1588;50.892;7.082;2022-09-16T15:29:33;9.90;;;0.70;;
3155;SDS011;1588;50.892;7.082;2022-09-16T15:34:47;3.60;;;0.80;;
3155;SDS011;1588;50.892;7.082;2022-09-16T15:40:09;1.23;;;0.80;;
3155;SDS011;1588;50.892;7.082;2022-09-16T15:45:20;1.43;;;0.73;;
3155;SDS011;1588;50.892;7.082;2022-09-16T15:50:27;5.07;;;0.73;;
3155;SDS011;1588;50.892;7.082;2022-09-16T15:55:42;2.60;;;0.90;;
3155;SDS011;1588;50.892;7.082;2022-09-16T16:00:58;3.13;;;0.80;;
3155;SDS011;1588;50.892;7.082;2022-09-16T16:06:03;8.83;;;1.00;;
3155;SDS011;1588;50.892;7.082;2022-09-16T16:11:08;5.87;;;1.47;;
3155;SDS011;1588;50.892;7.082;2022-09-16T16:16:17;2.40;;;0.97;;
3155;SDS011;1588;50.892;7.082;2022-09-16T16:21:21;2.80;;;0.70;;
3155;SDS011;1588;50.892;7.082;2022-09-16T16:26:25;1.07;;;0.70;;
3155;SDS011;1588;50.892;7.082;2022-09-16T16:31:28;2.23;;;0.90;;
3155;SDS011;1588;50.892;7.082;2022-09-16T16:36:30;6.90;;;0.83;;
3155;SDS011;1588;50.892;7.082;2022-09-16T16:41:34;3.23;;;1.17;;
3155;SDS011;1588;50.892;7.082;2022-09-16T16:46:36;2.10;;;0.90;;
3155;SDS011;1588;50.892;7.082;2022-09-16T16:51:38;1.93;;;0.77;;
3155;SDS011;1588;50.892;7.082;2022-09-16T16:56:42;6.77;;;0.87;;
3155;SDS011;1588;50.892;7.082;2022-09-16T17:01:46;3.63;;;0.80;;
3155;SDS011;1588;50.892;7.082;2022-09-16T17:06:51;8.30;;;1.50;;
3155;SDS011;1588;50.892;7.082;2022-09-16T17:11:55;1.20;;;0.90;;
3155;SDS011;1588;50.892;7.082;2022-09-16T17:16:59;4.53;;;0.97;;
3155;SDS011;1588;50.892;7.082;2022-09-16T17:22:02;4.77;;;1.10;;
3155;SDS011;1588;50.892;7.082;2022-09-16T17:27:06;3.30;;;0.90;;
3155;SDS011;1588;50.892;7.082;2022-09-16T17:32:08;5.03;;;1.13;;
3155;SDS011;1588;50.892;7.082;2022-09-16T17:37:10;1.87;;;0.80;;
3155;SDS011;1588;50.892;7.082;2022-09-16T17:42:15;13.30;;;1.10;;
3155;SDS011;1588;50.892;7.082;2022-09-16T17:47:18;2.13;;;0.87;;
3155;SDS011;1588;50.892;7.082;2022-09-16T17:52:21;1.93;;;0.70;;
3155;SDS011;1588;50.892;7.082;2022-09-16T17:57:25;7.40;;;1.27;;
3155;SDS011;1588;50.892;7.082;2022-09-16T18:02:27;4.10;;;1.30;;
3155;SDS011;1588;50.892;7.082;2022-09-16T18:07:30;3.40;;;1.00;;
3155;SDS011;1588;50.892;7.082;2022-09-16T18:12:33;6.57;;;1.43;;
3155;SDS011;1588;50.892;7.082;2022-09-16T18:17:42;2.40;;;1.10;;
3155;SDS011;1588;50.892;7.082;2022-09-16T18:22:45;1.10;;;0.90;;
3155;SDS011;1588;50.892;7.082;2022-09-16T18:27:49;6.77;;;1.43;;
3155;SDS011;1588;50.892;7.082;2022-09-16T18:32:51;2.80;;;0.90;;
3155;SDS011;1588;50.892;7.082;2022-09-16T18:37:54;3.60;;;1.00;;
3155;SDS011;1588;50.892;7.082;2022-09-16T18:42:58;1.73;;;1.20;;
3155;SDS011;1588;50.892;7.082;2022-09-16T18:48:00;4.63;;;1.13;;
3155;SDS011;1588;50.892;7.082;2022-09-16T18:53:03;2.40;;;1.10;;
3155;SDS011;1588;50.892;7.082;2022-09-16T18:58:07;5.67;;;1.50;;
3155;SDS011;1588;50.892;7.082;2022-09-16T19:03:09;5.03;;;1.00;;
3155;SDS011;1588;50.892;7.082;2022-09-16T19:08:12;2.33;;;1.03;;
3155;SDS011;1588;50.892;7.082;2022-09-16T19:13:15;2.50;;;1.00;;
3155;SDS011;1588;50.892;7.082;2022-09-16T19:18:18;4.10;;;1.20;;
3155;SDS011;1588;50.892;7.082;2022-09-16T19:23:21;6.87;;;1.67;;
3155;SDS011;1588;50.892;7.082;2022-09-16T19:28:25;10.03;;;1.40;;
3155;SDS011;1588;50.892;7.082;2022-09-16T19:33:27;12.13;;;1.20;;
3155;SDS011;1588;50.892;7.082;2022-09-16T19:38:29;3.03;;;1.40;;
3155;SDS011;1588;50.892;7.082;2022-09-16T19:43:34;2.97;;;1.13;;
3155;SDS011;1588;50.892;7.082;2022-09-16T19:48:37;4.33;;;1.10;;
3155;SDS011;1588;50.892;7.082;2022-09-16T19:53:41;3.83;;;1.10;;
3155;SDS011;1588;50.892;7.082;2022-09-16T19:58:56;27.77;;;2.30;;
3155;SDS011;1588;50.892;7.082;2022-09-16T20:04:02;6.90;;;1.30;;
3155;SDS011;1588;50.892;7.082;2022-09-16T20:09:07;7.50;;;1.40;;
3155;SDS011;1588;50.892;7.082;2022-09-16T20:14:13;4.07;;;1.50;;
3155;SDS011;1588;50.892;7.082;2022-09-16T20:19:17;8.73;;;1.40;;
3155;SDS011;1588;50.892;7.082;2022-09-16T20:24:21;2.03;;;1.20;;
3155;SDS011;1588;50.892;7.082;2022-09-16T20:29:25;3.93;;;1.33;;
3155;SDS011;1588;50.892;7.082;2022-09-16T20:34:27;13.10;;;1.70;;
3155;SDS011;1588;50.892;7.082;2022-09-16T20:39:33;14.90;;;1.53;;
3155;SDS011;1588;50.892;7.082;2022-09-16T20:44:37;7.90;;;1.50;;
3155;SDS011;1588;50.892;7.082;2022-09-16T20:49:40;6.23;;;1.30;;
3155;SDS011;1588;50.892;7.082;2022-09-16T20:54:42;5.23;;;2.00;;
3155;SDS011;1588;50.892;7.082;2022-09-16T20:59:46;3.23;;;1.23;;
3155;SDS011;1588;50.892;7.082;2022-09-16T21:04:48;3.07;;;1.30;;
3155;SDS011;1588;50.892;7.082;2022-09-16T21:09:51;6.57;;;1.57;;
3155;SDS011;1588;50.892;7.082;2022-09-16T21:14:54;4.80;;;1.60;;
3155;SDS011;1588;50.892;7.082;2022-09-16T21:19:57;6.00;;;1.67;;
3155;SDS011;1588;50.892;7.082;2022-09-16T21:24:59;4.50;;;1.40;;
3155;SDS011;1588;50.892;7.082;2022-09-16T21:30:03;3.00;;;1.40;;
3155;SDS011;1588;50.892;7.082;2022-09-16T21:35:06;3.73;;;1.60;;
3155;SDS011;1588;50.892;7.082;2022-09-16T21:40:09;2.70;;;1.27;;
3155;SDS011;1588;50.892;7.082;2022-09-16T21:45:15;4.60;;;1.40;;
3155;SDS011;1588;50.892;7.082;2022-09-16T21:50:17;5.63;;;1.53;;
3155;SDS011;1588;50.892;7.082;2022-09-16T21:55:19;4.43;;;1.27;;
3155;SDS011;1588;50.892;7.082;2022-09-16T22:00:23;5.70;;;1.40;;
3155;SDS011;1588;50.892;7.082;2022-09-16T22:05:25;10.60;;;1.43;;
3155;SDS011;1588;50.892;7.082;2022-09-16T22:10:28;4.10;;;1.30;;
3155;SDS011;1588;50.892;7.082;2022-09-16T22:15:32;3.63;;;1.03;;
3155;SDS011;1588;50.892;7.082;2022-09-16T22:20:34;8.03;;;1.50;;
3155;SDS011;1588;50.892;7.082;2022-09-16T22:25:37;8.27;;;1.80;;
3155;SDS011;1588;50.892;7.082;2022-09-16T22:30:41;8.63;;;1.90;;
3155;SDS011;1588;50.892;7.082;2022-09-16T22:35:44;7.90;;;1.60;;
3155;SDS011;1588;50.892;7.082;2022-09-16T22:40:47;3.07;;;1.07;;
3155;SDS011;1588;50.892;7.082;2022-09-16T22:45:51;8.67;;;1.73;;
3155;SDS011;1588;50.892;7.082;2022-09-16T22:50:54;4.00;;;1.37;;
3155;SDS011;1588;50.892;7.082;2022-09-16T22:55:57;10.33;;;1.90;;
3155;SDS011;1588;50.892;7.082;2022-09-16T23:01:03;2.00;;;0.97;;
3155;SDS011;1588;50.892;7.082;2022-09-16T23:06:08;10.87;;;1.47;;
3155;SDS011;1588;50.892;7.082;2022-09-16T23:11:12;6.40;;;1.30;;
3155;SDS011;1588;50.892;7.082;2022-09-16T23:16:18;2.33;;;1.20;;
3155;SDS011;1588;50.892;7.082;2022-09-16T23:21:22;2.70;;;1.20;;
3155;SDS011;1588;50.892;7.082;2022-09-16T23:26:25;7.00;;;1.40;;
3155;SDS011;1588;50.892;7.082;2022-09-16T23:31:31;24.90;;;1.80;;
3155;SDS011;1588;50.892;7.082;2022-09-16T23:36:35;6.50;;;1.20;;
3155;SDS011;1588;50.892;7.082;2022-09-16T23:41:37;10.27;;;1.40;;
3155;SDS011;1588;50.892;7.082;2022-09-16T23:46:43;9.03;;;1.60;;
3155;SDS011;1588;50.892;7.082;2022-09-16T23:51:45;2.73;;;1.20;;
3155;SDS011;1588;50.892;7.082;2022-09-16T23:56:48;6.00;;;1.40;;
